Airfield :
LOGIN :

Register | Disclaimer

   EN    FR    IT 

 










Legend :    VFR   Marginal VFR   IFR   Intensive IFR   Very Intensive IFR
Visi :
Ceiling :
>= 8 km
>= 3000ft
5 to 8 km
1000 to 3000 ft
1500m to 5 km
500 to 1000 ft
800 to 1500m
200 to 500 ft
< 800m
< 200 ft
Symbols :   Thunderstorms  Fog  Heavy snow  Heavy precipitations  Wind > 20 kt
SIGMETs :     Misc.  Thunderstorms  Icing  Turbulence  Mountain Waves  Volcanic Ashes







- Airport Elevation : 36 ft
- IATA code : LTQ
- Download approach charts


LFAT - Le Touquet

CURRENT METAR :
  • 181730Z AUTO 03007KT 9999 OVC038 14/10 Q1024 NOSIG

EXPIRED METARs :
  • 181700Z AUTO 03006KT 360V060 9999 BKN038 14/10 Q1024 NOSIG
  • 181630Z AUTO 05009KT 9999 BKN038 15/10 Q1024 NOSIG
  • 181600Z AUTO 04009KT 020V090 9999 BKN036 15/11 Q1024 NOSIG
  • 181530Z AUTO 04009KT 360V080 9999 FEW027 BKN038 16/10 Q1024 NOSIG
  • 181500Z AUTO 06012KT 010V080 9999 FEW032 BKN040 16/10 Q1024 NOSIG

TAF TAF LFAT
Valid from the 18 at 15:00 until the 19 at 00:00 UTC


181400Z 1815/1824 05008KT 9999 SCT020 BKN045
ATIS : +33 3 21 06 62 84
No reported NOTAMs for that airfield.



MET'MAP, your aeronautical weather chart ! - Copyright ORBIFLY December 2007 - Disclaimer

ORBIFLY MET'MAP TEAM :

Programming & Development : Alexandra Zaïnal
Concept & Development : Baudouin d'Aumeries
Co-Development & Prog : Marc-Olivier Méhu
Technical & hardware support : Manuel Goepfert

Contact : metmap@orbifly.com




SOURCES & CREDITS :

   NOAA